createdAt,value
2018-12-10T00:02:22.349Z,5.60
2018-12-10T00:04:50.726Z,5.50
2018-12-10T00:07:18.993Z,5.50
2018-12-10T00:09:47.360Z,5.50
2018-12-10T00:12:15.664Z,5.50
2018-12-10T00:14:44.053Z,5.50
2018-12-10T00:17:12.413Z,5.50
2018-12-10T00:19:40.681Z,5.50
2018-12-10T00:22:09.071Z,5.50
2018-12-10T00:24:37.343Z,5.50
2018-12-10T00:27:05.720Z,5.50
2018-12-10T00:29:33.981Z,5.60
2018-12-10T00:32:02.394Z,5.60
2018-12-10T00:34:30.680Z,5.60
2018-12-10T00:36:59.097Z,5.60
2018-12-10T00:39:27.508Z,5.60
2018-12-10T00:41:55.814Z,5.60
2018-12-10T00:44:24.103Z,5.70
2018-12-10T00:46:52.441Z,5.70
2018-12-10T00:49:20.893Z,5.70
2018-12-10T00:51:49.265Z,5.70
2018-12-10T00:54:17.593Z,5.70
2018-12-10T00:56:46.031Z,5.70
2018-12-10T00:59:14.328Z,5.60
2018-12-10T01:04:10.868Z,5.50
2018-12-10T01:06:39.216Z,5.40
2018-12-10T01:09:07.526Z,5.30
2018-12-10T01:11:35.903Z,5.40
2018-12-10T01:14:04.168Z,5.30
2018-12-10T01:16:32.563Z,5.30
2018-12-10T01:19:01.321Z,5.30
2018-12-10T01:21:29.671Z,5.30
2018-12-10T01:23:58.005Z,5.30
2018-12-10T01:26:26.277Z,5.30
2018-12-10T01:28:54.592Z,5.30
2018-12-10T01:31:22.873Z,5.30
2018-12-10T01:33:51.205Z,5.30
2018-12-10T01:36:19.648Z,5.30
2018-12-10T01:38:48.126Z,5.30
2018-12-10T01:41:16.390Z,5.30
2018-12-10T01:43:44.699Z,5.30
2018-12-10T01:46:13.062Z,5.40
2018-12-10T01:48:41.351Z,5.30
2018-12-10T01:51:09.634Z,5.40
2018-12-10T01:53:38.015Z,5.40
2018-12-10T01:56:06.388Z,5.40
2018-12-10T01:58:34.673Z,5.40
2018-12-10T02:01:02.945Z,5.40
2018-12-10T02:03:31.277Z,5.40
2018-12-10T02:05:59.592Z,5.40
2018-12-10T02:08:27.900Z,5.40
2018-12-10T02:10:56.251Z,5.40
2018-12-10T02:13:24.616Z,5.40
2018-12-10T02:15:52.892Z,5.40
2018-12-10T02:18:21.172Z,5.40
2018-12-10T02:20:49.551Z,5.30
2018-12-10T02:23:17.920Z,5.40
2018-12-10T02:25:46.254Z,5.30
2018-12-10T02:28:16.569Z,5.20
2018-12-10T02:30:44.832Z,5.20
2018-12-10T02:33:13.193Z,5.10
2018-12-10T02:35:41.464Z,5.10
2018-12-10T02:38:09.748Z,5.10
2018-12-10T02:40:38.177Z,5.10
2018-12-10T02:43:06.621Z,5.00
2018-12-10T02:45:35.064Z,5.00
2018-12-10T02:48:03.452Z,4.90
2018-12-10T02:50:31.973Z,4.90
2018-12-10T02:53:00.266Z,4.90
2018-12-10T02:55:28.594Z,4.90
2018-12-10T02:57:56.924Z,4.80
2018-12-10T03:00:25.299Z,4.80
2018-12-10T03:02:53.753Z,4.80
2018-12-10T03:05:22.200Z,4.80
2018-12-10T03:07:50.585Z,4.80
2018-12-10T03:10:18.857Z,4.80
2018-12-10T03:12:47.208Z,4.70
2018-12-10T03:15:15.603Z,4.60
2018-12-10T03:17:43.897Z,4.40
2018-12-10T03:20:12.182Z,4.20
2018-12-10T03:22:40.463Z,4.20
2018-12-10T03:25:08.810Z,4.10
2018-12-10T03:27:37.245Z,4.00
2018-12-10T03:30:05.730Z,4.00
2018-12-10T03:32:34.042Z,3.90
2018-12-10T03:35:02.637Z,3.90
2018-12-10T03:37:31.324Z,3.90
2018-12-10T03:39:59.750Z,3.90
2018-12-10T03:42:28.090Z,3.90
2018-12-10T03:44:56.377Z,3.90
2018-12-10T03:47:24.715Z,3.80
2018-12-10T03:49:53.152Z,3.80
2018-12-10T03:52:21.430Z,3.70
2018-12-10T03:54:49.739Z,3.70
2018-12-10T03:57:18.004Z,3.70
2018-12-10T03:59:46.383Z,3.60
2018-12-10T04:02:14.733Z,3.50
2018-12-10T04:04:43.038Z,3.50
2018-12-10T04:07:11.314Z,3.50
2018-12-10T04:09:39.603Z,3.40
2018-12-10T04:12:07.975Z,3.40
2018-12-10T04:14:36.323Z,3.40
2018-12-10T04:17:04.712Z,3.40
2018-12-10T04:19:33.011Z,3.30
2018-12-10T04:22:01.288Z,3.20
2018-12-10T04:24:29.648Z,3.10
2018-12-10T04:26:57.918Z,3.10
2018-12-10T04:29:26.215Z,3.10
2018-12-10T04:31:54.589Z,3.00
2018-12-10T04:34:22.873Z,3.00
2018-12-10T04:36:51.169Z,2.90
2018-12-10T04:39:19.533Z,2.90
2018-12-10T04:41:47.881Z,2.80
2018-12-10T04:44:16.180Z,2.80
2018-12-10T04:46:44.529Z,2.80
2018-12-10T04:49:12.904Z,2.80
2018-12-10T04:51:41.188Z,2.70
2018-12-10T04:54:09.493Z,2.70
2018-12-10T04:56:37.758Z,2.70
2018-12-10T04:59:06.069Z,2.70
2018-12-10T05:01:34.389Z,2.70
2018-12-10T05:04:02.787Z,2.70
2018-12-10T05:06:31.305Z,2.70
2018-12-10T05:08:59.637Z,2.70
2018-12-10T05:11:27.925Z,2.70
2018-12-10T05:13:56.200Z,2.70
2018-12-10T05:16:24.498Z,2.70
2018-12-10T05:18:52.840Z,2.80
2018-12-10T05:21:21.130Z,2.80
2018-12-10T05:23:49.472Z,2.80
2018-12-10T05:26:17.924Z,2.90
2018-12-10T05:28:46.517Z,2.90
2018-12-10T05:31:15.132Z,2.90
2018-12-10T05:33:43.520Z,2.90
2018-12-10T05:36:11.833Z,2.90
2018-12-10T05:38:40.153Z,2.90
2018-12-10T05:41:09.073Z,2.90
2018-12-10T05:43:37.905Z,2.90
2018-12-10T05:46:06.313Z,2.90
2018-12-10T05:48:34.581Z,2.90
2018-12-10T05:51:02.878Z,3.00
2018-12-10T05:53:31.236Z,3.00
2018-12-10T05:55:59.620Z,3.00
2018-12-10T05:58:27.888Z,3.10
2018-12-10T06:00:56.180Z,3.10
2018-12-10T06:03:24.546Z,3.20
2018-12-10T06:05:52.841Z,3.30
2018-12-10T06:08:21.209Z,3.40
2018-12-10T06:10:49.574Z,3.50
2018-12-10T06:13:17.839Z,3.50
2018-12-10T06:15:46.245Z,3.60
2018-12-10T06:18:14.672Z,3.70
2018-12-10T06:20:42.956Z,3.80
2018-12-10T06:23:11.252Z,3.80
2018-12-10T06:28:07.707Z,3.90
2018-12-10T06:30:36.060Z,3.90
2018-12-10T06:33:04.409Z,4.00
2018-12-10T06:35:32.741Z,4.00
2018-12-10T06:38:01.004Z,4.20
2018-12-10T06:40:29.284Z,4.50
2018-12-10T06:42:57.738Z,4.50
2018-12-10T06:45:26.028Z,4.50
2018-12-10T06:47:54.287Z,4.50
2018-12-10T06:50:22.704Z,4.60
2018-12-10T06:52:50.969Z,4.60
2018-12-10T06:55:19.253Z,4.50
2018-12-10T06:57:47.626Z,4.40
2018-12-10T07:00:15.885Z,4.30
2018-12-10T07:02:44.273Z,4.20
2018-12-10T07:05:12.647Z,4.20
2018-12-10T07:07:40.937Z,4.10
2018-12-10T07:10:09.276Z,4.10
2018-12-10T07:12:37.568Z,4.10
2018-12-10T07:15:06.436Z,4.00
2018-12-10T07:17:34.735Z,4.00
2018-12-10T07:20:03.095Z,4.00
2018-12-10T07:22:31.381Z,4.00
2018-12-10T07:24:59.657Z,4.00
2018-12-10T07:27:28.018Z,4.00
2018-12-10T07:29:56.269Z,4.00
2018-12-10T07:32:24.602Z,4.00
2018-12-10T07:34:52.880Z,4.00
2018-12-10T07:37:21.178Z,4.00
2018-12-10T07:39:49.806Z,4.00
2018-12-10T07:42:18.183Z,4.00
2018-12-10T07:44:46.497Z,4.10
2018-12-10T07:47:14.795Z,4.10
2018-12-10T07:49:43.167Z,4.20
2018-12-10T07:52:11.458Z,4.20
2018-12-10T07:54:39.727Z,4.20
2018-12-10T07:57:08.056Z,4.30
2018-12-10T07:59:36.334Z,4.30
2018-12-10T08:02:05.073Z,4.40
2018-12-10T08:04:33.343Z,4.40
2018-12-10T08:07:01.641Z,4.40
2018-12-10T08:09:29.903Z,4.30
2018-12-10T08:11:58.245Z,4.30
2018-12-10T08:14:26.613Z,4.30
2018-12-10T08:16:55.013Z,4.30
2018-12-10T08:19:23.297Z,4.30
2018-12-10T08:21:51.632Z,4.30
2018-12-10T08:24:20.000Z,4.30
2018-12-10T08:26:48.298Z,4.30
2018-12-10T08:29:16.573Z,4.20
2018-12-10T08:31:44.984Z,4.20
2018-12-10T08:34:13.254Z,4.20
2018-12-10T08:36:41.666Z,4.30
2018-12-10T08:39:10.077Z,4.30
2018-12-10T08:41:38.457Z,4.30
2018-12-10T08:44:07.641Z,4.30
2018-12-10T08:46:35.925Z,4.30
2018-12-10T08:49:04.188Z,4.40
2018-12-10T08:51:32.484Z,4.40
2018-12-10T08:54:00.784Z,4.40
2018-12-10T08:56:29.045Z,4.40
2018-12-10T08:58:57.372Z,4.40
2018-12-10T09:01:25.686Z,4.50
2018-12-10T09:03:53.977Z,4.50
2018-12-10T09:06:22.241Z,4.50
2018-12-10T09:08:50.537Z,4.50
2018-12-10T09:11:18.869Z,4.50
2018-12-10T09:13:47.313Z,4.50
2018-12-10T09:16:15.635Z,4.50
2018-12-10T09:18:43.924Z,4.50
2018-12-10T09:21:12.212Z,4.50
2018-12-10T09:23:40.567Z,4.50
2018-12-10T09:26:08.954Z,4.50
2018-12-10T09:28:37.629Z,4.50
2018-12-10T09:31:06.011Z,4.50
2018-12-10T09:33:34.380Z,4.50
2018-12-10T09:36:02.730Z,4.40
2018-12-10T09:38:31.005Z,4.40
2018-12-10T09:40:59.316Z,4.40
2018-12-10T09:43:27.676Z,4.30
2018-12-10T09:45:55.954Z,4.30
2018-12-10T09:48:24.330Z,4.30
2018-12-10T09:50:52.626Z,4.40
2018-12-10T09:53:20.991Z,4.30
2018-12-10T09:55:49.373Z,4.30
2018-12-10T09:58:17.669Z,4.30
2018-12-10T10:00:46.013Z,4.30
2018-12-10T10:03:14.315Z,4.30
2018-12-10T10:08:10.717Z,4.40
2018-12-10T10:10:38.980Z,4.40
2018-12-10T10:30:23.621Z,4.40
2018-12-10T10:32:51.902Z,4.40
2018-12-10T10:37:48.240Z,4.50
2018-12-10T10:47:40.842Z,4.50
2018-12-10T10:50:09.133Z,4.50
2018-12-10T10:52:37.397Z,4.60
2018-12-10T10:55:06.073Z,4.50
2018-12-10T10:57:34.343Z,4.50
2018-12-10T11:00:02.643Z,4.60
2018-12-10T11:05:39.954Z,4.80
2018-12-10T11:08:08.363Z,4.90
2018-12-10T11:10:36.624Z,4.80
2018-12-10T11:13:04.889Z,4.80
2018-12-10T11:15:33.185Z,4.80
2018-12-10T11:18:01.450Z,4.80
2018-12-10T11:20:29.747Z,4.80
2018-12-10T11:22:57.997Z,4.70
2018-12-10T11:25:26.277Z,4.70
2018-12-10T11:27:54.533Z,4.60
2018-12-10T11:30:22.852Z,4.60
2018-12-10T11:32:51.204Z,4.60
2018-12-10T11:35:19.488Z,4.50
2018-12-10T11:37:47.997Z,4.50
2018-12-10T11:40:16.630Z,4.50
2018-12-10T11:42:44.982Z,4.50
2018-12-10T11:45:13.386Z,4.50
2018-12-10T11:47:41.645Z,4.50
2018-12-10T11:50:09.944Z,4.40
2018-12-10T11:52:38.238Z,4.10
2018-12-10T11:55:06.527Z,3.90
2018-12-10T11:57:34.808Z,5.90
2018-12-10T12:00:03.148Z,3.70
2018-12-10T12:02:31.404Z,3.70
2018-12-10T12:04:59.694Z,3.70
2018-12-10T12:07:27.960Z,3.80
2018-12-10T12:09:56.242Z,3.90
2018-12-10T12:12:24.615Z,4.10
2018-12-10T12:14:52.913Z,4.20
2018-12-10T12:17:21.190Z,4.20
2018-12-10T12:19:49.482Z,4.30
2018-12-10T12:22:17.738Z,4.30
2018-12-10T12:24:46.031Z,4.40
2018-12-10T12:27:14.392Z,4.40
2018-12-10T12:29:42.764Z,4.50
2018-12-10T12:32:11.036Z,4.50
2018-12-10T12:34:39.320Z,4.50
2018-12-10T12:37:07.618Z,4.50
2018-12-10T12:39:35.909Z,4.50
2018-12-10T12:42:04.223Z,4.50
2018-12-10T12:44:32.585Z,4.50
2018-12-10T12:47:00.868Z,4.50
2018-12-10T12:49:29.174Z,4.50
2018-12-10T12:51:57.511Z,4.50
2018-12-10T12:54:25.932Z,4.60
2018-12-10T12:56:54.684Z,4.70
2018-12-10T12:59:22.952Z,4.80
2018-12-10T13:01:51.238Z,5.00
2018-12-10T13:04:19.496Z,5.10
2018-12-10T13:06:47.947Z,5.10
2018-12-10T13:09:21.687Z,5.00
2018-12-10T13:11:46.802Z,4.80
2018-12-10T13:14:15.105Z,4.70
2018-12-10T13:16:49.473Z,4.70
2018-12-10T13:19:13.835Z,4.60
2018-12-10T13:21:42.358Z,4.50
2018-12-10T13:24:10.621Z,4.40
2018-12-10T13:26:39.013Z,4.30
2018-12-10T13:29:07.519Z,4.20
2018-12-10T13:31:36.048Z,4.10
2018-12-10T13:34:04.312Z,4.10
2018-12-10T13:36:32.631Z,4.10
2018-12-10T13:39:00.907Z,4.10
2018-12-10T13:41:29.293Z,4.20
2018-12-10T13:43:57.702Z,4.20
2018-12-10T13:46:26.069Z,4.40
2018-12-10T13:48:54.544Z,4.60
2018-12-10T13:51:22.825Z,4.70
2018-12-10T13:53:51.104Z,6.70
2018-12-10T13:56:19.383Z,4.70
2018-12-10T13:58:47.740Z,4.80
2018-12-10T14:01:16.153Z,4.80
2018-12-10T14:03:45.056Z,4.80
2018-12-10T14:06:13.344Z,4.80
2018-12-10T14:08:41.608Z,4.80
2018-12-10T14:11:09.900Z,5.00
2018-12-10T14:13:38.155Z,5.10
2018-12-10T14:16:06.561Z,5.00
2018-12-10T14:18:34.904Z,4.80
2018-12-10T14:21:03.293Z,4.70
2018-12-10T14:23:31.604Z,4.60
2018-12-10T14:26:00.003Z,4.50
2018-12-10T14:28:28.280Z,4.30
2018-12-10T14:30:57.050Z,4.20
2018-12-10T14:33:25.437Z,4.20
2018-12-10T14:35:53.732Z,4.10
2018-12-10T14:38:22.109Z,4.10
2018-12-10T14:40:50.497Z,4.00
2018-12-10T14:43:18.849Z,4.00
2018-12-10T14:45:47.169Z,4.00
2018-12-10T14:48:15.437Z,4.00
2018-12-10T14:50:43.727Z,4.00
2018-12-10T14:53:12.015Z,4.10
2018-12-10T14:55:40.283Z,4.00
2018-12-10T14:58:08.625Z,4.00
2018-12-10T15:00:37.153Z,4.00
2018-12-10T15:03:05.436Z,4.00
2018-12-10T15:05:33.747Z,4.00
2018-12-10T15:08:02.021Z,4.10
2018-12-10T15:10:30.291Z,4.10
2018-12-10T15:12:58.633Z,4.10
2018-12-10T15:15:26.973Z,4.10
2018-12-10T15:17:55.301Z,4.00
2018-12-10T15:20:23.666Z,4.00
2018-12-10T15:22:52.023Z,4.10
2018-12-10T15:25:20.312Z,4.10
2018-12-10T15:27:48.589Z,4.10
2018-12-10T15:30:16.858Z,4.10
2018-12-10T15:32:45.174Z,4.10
2018-12-10T15:35:13.427Z,4.10
2018-12-10T15:37:41.713Z,4.20
2018-12-10T15:40:09.976Z,4.10
2018-12-10T15:42:38.278Z,4.10
2018-12-10T15:45:06.549Z,4.10
2018-12-10T15:47:34.841Z,4.10
2018-12-10T15:50:03.110Z,4.20
2018-12-10T15:52:31.397Z,4.20
2018-12-10T15:54:59.736Z,4.30
2018-12-10T15:57:28.033Z,4.20
2018-12-10T15:59:56.291Z,4.10
2018-12-10T16:02:24.592Z,4.10
2018-12-10T16:04:52.857Z,4.00
2018-12-10T16:07:21.154Z,3.90
2018-12-10T16:09:49.421Z,3.90
2018-12-10T16:12:17.726Z,3.90
2018-12-10T16:14:46.229Z,3.90
2018-12-10T16:17:14.527Z,3.90
2018-12-10T16:19:42.792Z,3.90
2018-12-10T16:22:11.112Z,3.90
2018-12-10T16:24:39.381Z,3.90
2018-12-10T16:27:07.825Z,3.90
2018-12-10T16:29:36.097Z,3.90
2018-12-10T16:32:04.439Z,3.90
2018-12-10T16:34:32.924Z,3.90
2018-12-10T16:37:01.218Z,3.90
2018-12-10T16:39:29.506Z,3.90
2018-12-10T16:41:57.872Z,3.90
2018-12-10T16:44:26.156Z,3.90
2018-12-10T16:46:54.528Z,4.00
2018-12-10T16:49:22.817Z,4.00
2018-12-10T16:51:51.111Z,4.00
2018-12-10T16:54:19.399Z,4.70
2018-12-10T16:56:47.665Z,4.10
2018-12-10T16:59:15.957Z,4.00
2018-12-10T17:01:44.217Z,4.10
2018-12-10T17:04:12.492Z,4.00
2018-12-10T17:06:40.778Z,4.10
2018-12-10T17:09:10.426Z,4.10
2018-12-10T17:11:38.890Z,4.10
2018-12-10T17:14:07.464Z,4.10
2018-12-10T17:16:35.728Z,4.10
2018-12-10T17:19:04.032Z,4.00
2018-12-10T17:21:32.342Z,4.00
2018-12-10T17:24:00.643Z,4.00
2018-12-10T17:26:28.997Z,4.00
2018-12-10T17:28:57.381Z,4.00
2018-12-10T17:31:25.757Z,4.00
2018-12-10T17:33:54.117Z,4.00
2018-12-10T17:36:22.393Z,4.10
2018-12-10T17:38:50.677Z,4.00
2018-12-10T17:41:18.944Z,4.00
2018-12-10T17:43:47.233Z,4.00
2018-12-10T17:46:15.505Z,4.00
2018-12-10T17:48:43.799Z,6.50
2018-12-10T17:51:12.157Z,4.00
2018-12-10T17:53:40.609Z,4.00
2018-12-10T17:56:08.965Z,4.10
2018-12-10T17:58:37.287Z,4.10
2018-12-10T18:01:05.551Z,4.10
2018-12-10T18:03:33.832Z,4.10
2018-12-10T18:06:02.097Z,4.10
2018-12-10T18:08:30.384Z,4.10
2018-12-10T18:10:58.912Z,4.00
2018-12-10T18:15:55.240Z,4.10
2018-12-10T18:18:23.525Z,4.10
2018-12-10T18:30:44.859Z,4.10
2018-12-10T18:33:13.135Z,4.20
2018-12-10T18:38:09.506Z,4.20
2018-12-10T18:43:05.983Z,4.20
2018-12-10T18:50:30.597Z,4.20
2018-12-10T18:57:55.200Z,4.20
2018-12-10T19:00:23.510Z,4.20
2018-12-10T19:07:49.728Z,4.10
2018-12-10T19:10:18.077Z,4.10
2018-12-10T19:12:46.441Z,4.10
2018-12-10T19:15:14.737Z,4.10
2018-12-10T19:17:43.005Z,4.10
2018-12-10T19:22:41.511Z,4.00
2018-12-10T19:25:09.806Z,3.90
2018-12-10T19:27:38.333Z,4.00
2018-12-10T19:30:07.300Z,3.90
2018-12-10T19:32:35.568Z,4.00
2018-12-10T19:40:00.117Z,3.90
2018-12-10T19:42:28.432Z,3.90
2018-12-10T19:47:24.875Z,3.90
2018-12-10T19:52:21.285Z,3.90
2018-12-10T19:54:49.585Z,3.80
2018-12-10T19:57:17.963Z,3.90
2018-12-10T19:59:46.360Z,3.90
2018-12-10T20:02:14.726Z,3.80
2018-12-10T20:04:43.278Z,3.90
2018-12-10T20:07:11.707Z,3.80
2018-12-10T20:09:40.168Z,3.70
2018-12-10T20:12:08.443Z,3.60
2018-12-10T20:14:36.821Z,3.50
2018-12-10T20:17:05.361Z,3.50
2018-12-10T20:19:33.677Z,3.40
2018-12-10T20:22:02.065Z,3.40
2018-12-10T20:24:30.370Z,3.30
2018-12-10T20:26:58.696Z,3.20
2018-12-10T20:29:27.001Z,2.90
2018-12-10T20:31:55.532Z,2.70
2018-12-10T20:34:24.087Z,2.70
2018-12-10T20:36:52.393Z,2.60
2018-12-10T20:39:20.686Z,2.50
2018-12-10T20:41:49.114Z,2.40
2018-12-10T20:44:17.390Z,2.50
2018-12-10T20:46:45.822Z,2.60
2018-12-10T20:49:14.313Z,2.60
2018-12-10T20:51:42.869Z,2.70
2018-12-10T20:54:11.161Z,2.70
2018-12-10T20:56:39.458Z,2.60
2018-12-10T20:59:07.784Z,2.50
2018-12-10T21:01:36.126Z,2.50
2018-12-10T21:04:04.390Z,2.40
2018-12-10T21:06:35.140Z,2.40
2018-12-10T21:09:04.776Z,2.30
2018-12-10T21:11:33.189Z,2.30
2018-12-10T21:14:01.490Z,2.20
2018-12-10T21:16:29.771Z,2.20
2018-12-10T21:18:58.046Z,2.20
2018-12-10T21:21:26.373Z,2.10
2018-12-10T21:23:54.661Z,2.10
2018-12-10T21:26:22.961Z,2.10
2018-12-10T21:28:51.235Z,2.10
2018-12-10T21:31:19.548Z,2.10
2018-12-10T21:33:47.853Z,2.10
2018-12-10T21:36:16.148Z,2.20
2018-12-10T21:38:45.598Z,2.20
2018-12-10T21:41:14.302Z,2.20
2018-12-10T21:43:42.615Z,2.30
2018-12-10T21:46:10.929Z,2.30
2018-12-10T21:48:39.277Z,2.30
2018-12-10T21:51:07.633Z,2.40
2018-12-10T21:53:36.079Z,2.40
2018-12-10T21:56:04.397Z,2.40
2018-12-10T21:58:32.664Z,2.40
2018-12-10T22:01:00.970Z,2.50
2018-12-10T22:03:29.235Z,2.50
2018-12-10T22:05:57.536Z,2.50
2018-12-10T22:08:25.858Z,2.50
2018-12-10T22:10:54.178Z,2.50
2018-12-10T22:13:22.627Z,2.40
2018-12-10T22:15:50.948Z,2.40
2018-12-10T22:18:19.262Z,2.50
2018-12-10T22:20:47.524Z,2.40
2018-12-10T22:23:15.823Z,2.40
2018-12-10T22:25:44.092Z,2.50
2018-12-10T22:28:12.465Z,2.50
2018-12-10T22:30:40.724Z,2.50
2018-12-10T22:33:09.094Z,2.50
2018-12-10T22:35:37.370Z,2.40
2018-12-10T22:38:05.689Z,2.40
2018-12-10T22:40:33.958Z,2.30
2018-12-10T22:43:02.265Z,2.30
2018-12-10T22:45:30.531Z,2.20
2018-12-10T22:47:58.947Z,2.20
2018-12-10T22:50:27.249Z,2.10
2018-12-10T22:52:55.545Z,2.10
2018-12-10T22:55:23.813Z,2.10
2018-12-10T22:57:52.181Z,2.00
2018-12-10T23:00:22.297Z,2.00
2018-12-10T23:02:50.596Z,2.00
2018-12-10T23:05:18.890Z,2.00
2018-12-10T23:07:47.216Z,2.00
2018-12-10T23:10:15.613Z,2.00
2018-12-10T23:12:43.914Z,2.00
2018-12-10T23:15:12.181Z,1.90
2018-12-10T23:17:40.485Z,1.90
2018-12-10T23:20:08.817Z,1.90
2018-12-10T23:22:37.097Z,1.90
2018-12-10T23:25:05.365Z,1.90
2018-12-10T23:27:33.732Z,1.90
2018-12-10T23:30:02.006Z,2.00
2018-12-10T23:32:30.380Z,2.00
2018-12-10T23:34:58.658Z,2.10
2018-12-10T23:37:26.955Z,2.10
2018-12-10T23:39:55.277Z,2.70
2018-12-10T23:42:23.666Z,3.10
2018-12-10T23:44:55.499Z,3.00
2018-12-10T23:47:23.863Z,2.70
2018-12-10T23:49:52.188Z,2.60
2018-12-10T23:52:20.505Z,2.50
2018-12-10T23:54:48.773Z,2.40
2018-12-10T23:57:17.070Z,2.30
2018-12-10T23:59:45.341Z,2.30
